sensor_id;sensor_type;location;lat;lon;timestamp;temperature;humidity
58413;DHT22;44209;52.952;6.790;2023-09-19T00:01:43;15.20;99.90
58413;DHT22;44209;52.952;6.790;2023-09-19T00:04:12;15.20;99.90
58413;DHT22;44209;52.952;6.790;2023-09-19T00:06:38;15.10;99.90
58413;DHT22;44209;52.952;6.790;2023-09-19T00:09:04;15.10;99.90
58413;DHT22;44209;52.952;6.790;2023-09-19T00:11:30;15.00;99.90
58413;DHT22;44209;52.952;6.790;2023-09-19T00:13:57;15.00;99.90
58413;DHT22;44209;52.952;6.790;2023-09-19T00:16:25;15.00;99.90
58413;DHT22;44209;52.952;6.790;2023-09-19T00:18:52;14.90;99.90
58413;DHT22;44209;52.952;6.790;2023-09-19T00:21:18;14.90;99.90
58413;DHT22;44209;52.952;6.790;2023-09-19T00:23:45;14.90;99.90
58413;DHT22;44209;52.952;6.790;2023-09-19T00:26:10;14.90;99.90
58413;DHT22;44209;52.952;6.790;2023-09-19T00:28:36;14.80;99.90
58413;DHT22;44209;52.952;6.790;2023-09-19T00:31:02;14.80;99.90
58413;DHT22;44209;52.952;6.790;2023-09-19T00:33:28;14.80;99.90
58413;DHT22;44209;52.952;6.790;2023-09-19T00:35:56;14.70;99.90
58413;DHT22;44209;52.952;6.790;2023-09-19T00:38:23;14.70;99.90
58413;DHT22;44209;52.952;6.790;2023-09-19T00:40:53;14.70;99.90
58413;DHT22;44209;52.952;6.790;2023-09-19T00:43:20;14.60;99.90
58413;DHT22;44209;52.952;6.790;2023-09-19T00:45:48;14.60;99.90
58413;DHT22;44209;52.952;6.790;2023-09-19T00:48:17;14.50;99.90
58413;DHT22;44209;52.952;6.790;2023-09-19T00:50:46;14.50;99.90
58413;DHT22;44209;52.952;6.790;2023-09-19T00:53:14;14.40;99.90
58413;DHT22;44209;52.952;6.790;2023-09-19T00:55:41;14.40;99.90
58413;DHT22;44209;52.952;6.790;2023-09-19T00:58:08;14.30;99.90
58413;DHT22;44209;52.952;6.790;2023-09-19T01:00:36;14.30;99.90
58413;DHT22;44209;52.952;6.790;2023-09-19T01:03:02;14.30;99.90
58413;DHT22;44209;52.952;6.790;2023-09-19T01:05:29;14.30;99.90
58413;DHT22;44209;52.952;6.790;2023-09-19T01:07:57;14.20;99.90
58413;DHT22;44209;52.952;6.790;2023-09-19T01:10:24;14.20;99.90
58413;DHT22;44209;52.952;6.790;2023-09-19T01:15:38;14.20;99.90
58413;DHT22;44209;52.952;6.790;2023-09-19T01:32:05;14.10;99.90
58413;DHT22;44209;52.952;6.790;2023-09-19T01:34:47;14.10;99.90
58413;DHT22;44209;52.952;6.790;2023-09-19T01:37:14;14.10;99.90
58413;DHT22;44209;52.952;6.790;2023-09-19T01:39:44;14.10;99.90
58413;DHT22;44209;52.952;6.790;2023-09-19T01:45:20;14.10;99.90
58413;DHT22;44209;52.952;6.790;2023-09-19T01:47:51;14.10;99.90
58413;DHT22;44209;52.952;6.790;2023-09-19T01:50:42;14.10;99.90
58413;DHT22;44209;52.952;6.790;2023-09-19T01:53:35;14.10;99.90
58413;DHT22;44209;52.952;6.790;2023-09-19T01:56:05;14.10;99.90
58413;DHT22;44209;52.952;6.790;2023-09-19T01:58:59;14.10;99.90
58413;DHT22;44209;52.952;6.790;2023-09-19T02:01:29;14.10;99.90
58413;DHT22;44209;52.952;6.790;2023-09-19T02:03:55;14.10;99.90
58413;DHT22;44209;52.952;6.790;2023-09-19T02:06:22;14.00;99.90
58413;DHT22;44209;52.952;6.790;2023-09-19T02:08:47;14.00;99.90
58413;DHT22;44209;52.952;6.790;2023-09-19T02:11:14;14.00;99.90
58413;DHT22;44209;52.952;6.790;2023-09-19T02:13:40;14.00;99.90
58413;DHT22;44209;52.952;6.790;2023-09-19T02:16:07;13.90;99.90
58413;DHT22;44209;52.952;6.790;2023-09-19T02:18:34;13.90;99.90
58413;DHT22;44209;52.952;6.790;2023-09-19T02:21:01;13.90;99.90
58413;DHT22;44209;52.952;6.790;2023-09-19T02:23:27;13.90;99.90
58413;DHT22;44209;52.952;6.790;2023-09-19T02:25:55;13.90;99.90
58413;DHT22;44209;52.952;6.790;2023-09-19T02:28:29;13.90;99.90
58413;DHT22;44209;52.952;6.790;2023-09-19T02:31:01;13.80;99.90
58413;DHT22;44209;52.952;6.790;2023-09-19T02:33:27;13.80;99.90
58413;DHT22;44209;52.952;6.790;2023-09-19T02:35:58;13.80;99.90
58413;DHT22;44209;52.952;6.790;2023-09-19T02:38:27;13.80;99.90
58413;DHT22;44209;52.952;6.790;2023-09-19T02:40:54;13.80;99.90
58413;DHT22;44209;52.952;6.790;2023-09-19T02:43:23;13.80;99.90
58413;DHT22;44209;52.952;6.790;2023-09-19T02:45:50;13.80;99.90
58413;DHT22;44209;52.952;6.790;2023-09-19T02:48:16;13.70;99.90
58413;DHT22;44209;52.952;6.790;2023-09-19T02:50:43;13.70;99.90
58413;DHT22;44209;52.952;6.790;2023-09-19T02:53:10;13.70;99.90
58413;DHT22;44209;52.952;6.790;2023-09-19T02:55:38;13.70;99.90
58413;DHT22;44209;52.952;6.790;2023-09-19T02:58:06;13.70;99.90
58413;DHT22;44209;52.952;6.790;2023-09-19T03:00:40;13.70;99.90
58413;DHT22;44209;52.952;6.790;2023-09-19T03:03:08;13.70;99.90
58413;DHT22;44209;52.952;6.790;2023-09-19T03:05:34;13.70;99.90
58413;DHT22;44209;52.952;6.790;2023-09-19T03:08:00;13.70;99.90
58413;DHT22;44209;52.952;6.790;2023-09-19T03:10:27;13.70;99.90
58413;DHT22;44209;52.952;6.790;2023-09-19T03:12:53;13.70;99.90
58413;DHT22;44209;52.952;6.790;2023-09-19T03:15:19;13.60;99.90
58413;DHT22;44209;52.952;6.790;2023-09-19T03:17:47;13.60;99.90
58413;DHT22;44209;52.952;6.790;2023-09-19T03:20:14;13.60;99.90
58413;DHT22;44209;52.952;6.790;2023-09-19T03:22:43;13.60;99.90
58413;DHT22;44209;52.952;6.790;2023-09-19T03:25:09;13.60;99.90
58413;DHT22;44209;52.952;6.790;2023-09-19T03:27:41;13.70;99.90
58413;DHT22;44209;52.952;6.790;2023-09-19T03:30:07;13.70;99.90
58413;DHT22;44209;52.952;6.790;2023-09-19T03:32:46;13.70;99.90
58413;DHT22;44209;52.952;6.790;2023-09-19T03:35:12;13.60;99.90
58413;DHT22;44209;52.952;6.790;2023-09-19T03:37:43;13.70;99.90
58413;DHT22;44209;52.952;6.790;2023-09-19T03:40:10;13.60;99.90
58413;DHT22;44209;52.952;6.790;2023-09-19T03:42:40;13.60;99.90
58413;DHT22;44209;52.952;6.790;2023-09-19T03:45:07;13.60;99.90
58413;DHT22;44209;52.952;6.790;2023-09-19T03:47:36;13.60;99.90
58413;DHT22;44209;52.952;6.790;2023-09-19T03:50:03;13.60;99.90
58413;DHT22;44209;52.952;6.790;2023-09-19T03:52:28;13.60;99.90
58413;DHT22;44209;52.952;6.790;2023-09-19T03:54:54;13.60;99.90
58413;DHT22;44209;52.952;6.790;2023-09-19T03:57:20;13.70;99.90
58413;DHT22;44209;52.952;6.790;2023-09-19T03:59:46;13.60;99.90
58413;DHT22;44209;52.952;6.790;2023-09-19T04:02:13;13.70;99.90
58413;DHT22;44209;52.952;6.790;2023-09-19T04:04:48;13.60;99.90
58413;DHT22;44209;52.952;6.790;2023-09-19T04:07:14;13.60;99.90
58413;DHT22;44209;52.952;6.790;2023-09-19T04:09:39;13.60;99.90
58413;DHT22;44209;52.952;6.790;2023-09-19T04:12:06;13.60;99.90
58413;DHT22;44209;52.952;6.790;2023-09-19T04:14:34;13.60;99.90
58413;DHT22;44209;52.952;6.790;2023-09-19T04:17:00;13.70;99.90
58413;DHT22;44209;52.952;6.790;2023-09-19T04:19:26;13.70;99.90
58413;DHT22;44209;52.952;6.790;2023-09-19T04:21:52;13.60;99.90
58413;DHT22;44209;52.952;6.790;2023-09-19T04:24:17;13.60;99.90
58413;DHT22;44209;52.952;6.790;2023-09-19T04:26:45;13.70;99.90
58413;DHT22;44209;52.952;6.790;2023-09-19T04:29:11;13.60;99.90
58413;DHT22;44209;52.952;6.790;2023-09-19T04:31:38;13.70;99.90
58413;DHT22;44209;52.952;6.790;2023-09-19T04:34:06;13.60;99.90
58413;DHT22;44209;52.952;6.790;2023-09-19T04:36:33;13.70;99.90
58413;DHT22;44209;52.952;6.790;2023-09-19T04:38:59;13.70;99.90
58413;DHT22;44209;52.952;6.790;2023-09-19T04:41:24;13.70;99.90
58413;DHT22;44209;52.952;6.790;2023-09-19T04:43:50;13.80;99.90
58413;DHT22;44209;52.952;6.790;2023-09-19T04:46:16;13.80;99.90
58413;DHT22;44209;52.952;6.790;2023-09-19T04:48:43;13.80;99.90
58413;DHT22;44209;52.952;6.790;2023-09-19T04:51:09;13.90;99.90
58413;DHT22;44209;52.952;6.790;2023-09-19T04:53:36;13.80;99.90
58413;DHT22;44209;52.952;6.790;2023-09-19T04:56:02;13.90;99.90
58413;DHT22;44209;52.952;6.790;2023-09-19T04:58:29;13.90;99.90
58413;DHT22;44209;52.952;6.790;2023-09-19T05:00:55;13.90;99.90
58413;DHT22;44209;52.952;6.790;2023-09-19T05:03:21;14.00;99.90
58413;DHT22;44209;52.952;6.790;2023-09-19T05:05:48;14.00;99.90
58413;DHT22;44209;52.952;6.790;2023-09-19T05:08:14;14.00;99.90
58413;DHT22;44209;52.952;6.790;2023-09-19T05:10:40;14.00;99.90
58413;DHT22;44209;52.952;6.790;2023-09-19T05:13:06;14.00;99.90
58413;DHT22;44209;52.952;6.790;2023-09-19T05:15:36;13.90;99.90
58413;DHT22;44209;52.952;6.790;2023-09-19T05:18:02;14.00;99.90
58413;DHT22;44209;52.952;6.790;2023-09-19T05:20:28;14.00;99.90
58413;DHT22;44209;52.952;6.790;2023-09-19T05:23:05;14.00;99.90
58413;DHT22;44209;52.952;6.790;2023-09-19T05:25:38;14.00;99.90
58413;DHT22;44209;52.952;6.790;2023-09-19T05:28:06;13.90;99.90
58413;DHT22;44209;52.952;6.790;2023-09-19T05:30:33;13.90;99.90
58413;DHT22;44209;52.952;6.790;2023-09-19T05:33:02;13.90;99.90
58413;DHT22;44209;52.952;6.790;2023-09-19T05:35:41;13.90;99.90
58413;DHT22;44209;52.952;6.790;2023-09-19T05:38:07;13.90;99.90
58413;DHT22;44209;52.952;6.790;2023-09-19T05:40:38;13.80;99.90
58413;DHT22;44209;52.952;6.790;2023-09-19T05:43:06;13.90;99.90
58413;DHT22;44209;52.952;6.790;2023-09-19T05:45:31;13.80;99.90
58413;DHT22;44209;52.952;6.790;2023-09-19T05:48:10;13.90;99.90
58413;DHT22;44209;52.952;6.790;2023-09-19T05:50:40;13.90;99.90
58413;DHT22;44209;52.952;6.790;2023-09-19T05:53:06;13.80;99.90
58413;DHT22;44209;52.952;6.790;2023-09-19T05:55:32;13.90;99.90
58413;DHT22;44209;52.952;6.790;2023-09-19T05:57:58;13.80;99.90
58413;DHT22;44209;52.952;6.790;2023-09-19T06:00:25;13.80;99.90
58413;DHT22;44209;52.952;6.790;2023-09-19T06:02:57;13.80;99.90
58413;DHT22;44209;52.952;6.790;2023-09-19T06:05:25;13.80;99.90
58413;DHT22;44209;52.952;6.790;2023-09-19T06:07:53;13.80;99.90
58413;DHT22;44209;52.952;6.790;2023-09-19T06:10:19;13.80;99.90
58413;DHT22;44209;52.952;6.790;2023-09-19T06:12:46;13.80;99.90
58413;DHT22;44209;52.952;6.790;2023-09-19T06:15:13;13.80;99.90
58413;DHT22;44209;52.952;6.790;2023-09-19T06:17:54;13.80;99.90
58413;DHT22;44209;52.952;6.790;2023-09-19T06:20:25;13.80;99.90
58413;DHT22;44209;52.952;6.790;2023-09-19T06:22:52;13.80;99.90
58413;DHT22;44209;52.952;6.790;2023-09-19T06:25:18;13.70;99.90
58413;DHT22;44209;52.952;6.790;2023-09-19T06:27:52;13.70;99.90
58413;DHT22;44209;52.952;6.790;2023-09-19T06:30:19;13.80;99.90
58413;DHT22;44209;52.952;6.790;2023-09-19T06:32:45;13.80;99.90
58413;DHT22;44209;52.952;6.790;2023-09-19T06:35:15;13.90;99.90
58413;DHT22;44209;52.952;6.790;2023-09-19T06:37:42;13.90;99.90
58413;DHT22;44209;52.952;6.790;2023-09-19T06:40:09;13.90;99.90
58413;DHT22;44209;52.952;6.790;2023-09-19T06:42:46;14.00;99.90
58413;DHT22;44209;52.952;6.790;2023-09-19T06:45:13;14.00;99.90
58413;DHT22;44209;52.952;6.790;2023-09-19T06:47:43;14.00;99.90
58413;DHT22;44209;52.952;6.790;2023-09-19T06:50:09;14.00;99.90
58413;DHT22;44209;52.952;6.790;2023-09-19T06:52:40;14.00;99.90
58413;DHT22;44209;52.952;6.790;2023-09-19T06:55:07;14.00;99.90
58413;DHT22;44209;52.952;6.790;2023-09-19T06:57:33;14.10;99.90
58413;DHT22;44209;52.952;6.790;2023-09-19T06:59:58;14.10;99.90
58413;DHT22;44209;52.952;6.790;2023-09-19T07:02:27;14.20;99.90
58413;DHT22;44209;52.952;6.790;2023-09-19T07:04:52;14.20;99.90
58413;DHT22;44209;52.952;6.790;2023-09-19T07:07:18;14.20;99.90
58413;DHT22;44209;52.952;6.790;2023-09-19T07:09:44;14.20;99.90
58413;DHT22;44209;52.952;6.790;2023-09-19T07:12:10;14.20;99.90
58413;DHT22;44209;52.952;6.790;2023-09-19T07:14:37;14.20;99.90
58413;DHT22;44209;52.952;6.790;2023-09-19T07:17:03;14.20;99.90
58413;DHT22;44209;52.952;6.790;2023-09-19T07:19:29;14.20;99.90
58413;DHT22;44209;52.952;6.790;2023-09-19T07:21:57;14.30;99.90
58413;DHT22;44209;52.952;6.790;2023-09-19T07:24:24;14.30;99.90
58413;DHT22;44209;52.952;6.790;2023-09-19T07:26:52;14.40;99.90
58413;DHT22;44209;52.952;6.790;2023-09-19T07:29:18;14.40;99.90
58413;DHT22;44209;52.952;6.790;2023-09-19T07:31:44;14.50;99.90
58413;DHT22;44209;52.952;6.790;2023-09-19T07:34:10;14.60;99.90
58413;DHT22;44209;52.952;6.790;2023-09-19T07:36:35;14.70;99.90
58413;DHT22;44209;52.952;6.790;2023-09-19T07:39:03;14.80;99.90
58413;DHT22;44209;52.952;6.790;2023-09-19T07:41:33;14.80;99.90
58413;DHT22;44209;52.952;6.790;2023-09-19T07:43:59;14.90;99.90
58413;DHT22;44209;52.952;6.790;2023-09-19T07:46:25;14.90;99.90
58413;DHT22;44209;52.952;6.790;2023-09-19T07:48:51;15.00;99.90
58413;DHT22;44209;52.952;6.790;2023-09-19T07:51:17;14.90;99.90
58413;DHT22;44209;52.952;6.790;2023-09-19T07:53:43;14.90;99.90
58413;DHT22;44209;52.952;6.790;2023-09-19T07:56:10;14.80;99.90
58413;DHT22;44209;52.952;6.790;2023-09-19T07:58:38;14.80;99.90
58413;DHT22;44209;52.952;6.790;2023-09-19T08:01:05;14.80;99.90
58413;DHT22;44209;52.952;6.790;2023-09-19T08:03:32;14.90;99.90
58413;DHT22;44209;52.952;6.790;2023-09-19T08:05:58;14.90;99.90
58413;DHT22;44209;52.952;6.790;2023-09-19T08:08:25;15.00;99.90
58413;DHT22;44209;52.952;6.790;2023-09-19T08:10:55;15.10;99.90
58413;DHT22;44209;52.952;6.790;2023-09-19T08:13:23;15.20;99.90
58413;DHT22;44209;52.952;6.790;2023-09-19T08:15:49;15.30;99.90
58413;DHT22;44209;52.952;6.790;2023-09-19T08:18:16;15.40;99.90
58413;DHT22;44209;52.952;6.790;2023-09-19T08:20:43;15.40;99.90
58413;DHT22;44209;52.952;6.790;2023-09-19T08:23:11;15.40;99.90
58413;DHT22;44209;52.952;6.790;2023-09-19T08:25:37;15.40;99.90
58413;DHT22;44209;52.952;6.790;2023-09-19T08:28:04;15.50;99.90
58413;DHT22;44209;52.952;6.790;2023-09-19T08:30:33;15.50;99.90
58413;DHT22;44209;52.952;6.790;2023-09-19T08:33:03;15.60;99.90
58413;DHT22;44209;52.952;6.790;2023-09-19T08:35:30;15.60;99.90
58413;DHT22;44209;52.952;6.790;2023-09-19T08:37:56;15.70;99.90
58413;DHT22;44209;52.952;6.790;2023-09-19T08:40:22;15.70;99.90
58413;DHT22;44209;52.952;6.790;2023-09-19T08:42:54;15.80;99.90
58413;DHT22;44209;52.952;6.790;2023-09-19T08:45:22;15.80;99.90
58413;DHT22;44209;52.952;6.790;2023-09-19T08:50:39;15.80;99.90
58413;DHT22;44209;52.952;6.790;2023-09-19T08:53:11;15.90;99.90
58413;DHT22;44209;52.952;6.790;2023-09-19T08:55:41;15.90;99.90
58413;DHT22;44209;52.952;6.790;2023-09-19T08:58:10;15.90;99.90
58413;DHT22;44209;52.952;6.790;2023-09-19T09:00:38;16.00;99.90
58413;DHT22;44209;52.952;6.790;2023-09-19T09:03:09;16.10;99.90
58413;DHT22;44209;52.952;6.790;2023-09-19T09:05:36;16.10;99.90
58413;DHT22;44209;52.952;6.790;2023-09-19T09:08:02;16.30;99.90
58413;DHT22;44209;52.952;6.790;2023-09-19T09:10:31;16.30;99.90
58413;DHT22;44209;52.952;6.790;2023-09-19T09:12:58;16.40;99.90
58413;DHT22;44209;52.952;6.790;2023-09-19T09:15:24;16.40;99.90
58413;DHT22;44209;52.952;6.790;2023-09-19T09:17:51;16.40;99.90
58413;DHT22;44209;52.952;6.790;2023-09-19T09:20:19;16.40;99.90
58413;DHT22;44209;52.952;6.790;2023-09-19T09:22:55;16.40;99.90
58413;DHT22;44209;52.952;6.790;2023-09-19T09:26:01;16.40;99.90
58413;DHT22;44209;52.952;6.790;2023-09-19T09:28:33;16.50;99.90
58413;DHT22;44209;52.952;6.790;2023-09-19T09:31:01;16.60;99.90
58413;DHT22;44209;52.952;6.790;2023-09-19T09:33:31;16.70;99.90
58413;DHT22;44209;52.952;6.790;2023-09-19T09:35:58;16.80;99.90
58413;DHT22;44209;52.952;6.790;2023-09-19T09:38:30;16.90;99.90
58413;DHT22;44209;52.952;6.790;2023-09-19T09:41:09;16.90;99.90
58413;DHT22;44209;52.952;6.790;2023-09-19T09:43:42;17.00;99.90
58413;DHT22;44209;52.952;6.790;2023-09-19T09:46:16;17.00;99.90
58413;DHT22;44209;52.952;6.790;2023-09-19T09:49:00;17.10;99.90
58413;DHT22;44209;52.952;6.790;2023-09-19T09:54:28;17.30;99.90
58413;DHT22;44209;52.952;6.790;2023-09-19T09:57:05;17.30;99.90
58413;DHT22;44209;52.952;6.790;2023-09-19T09:59:51;17.30;99.90
58413;DHT22;44209;52.952;6.790;2023-09-19T10:02:30;17.40;99.90
58413;DHT22;44209;52.952;6.790;2023-09-19T10:07:54;17.60;99.90
58413;DHT22;44209;52.952;6.790;2023-09-19T10:10:40;17.70;99.90
58413;DHT22;44209;52.952;6.790;2023-09-19T10:13:10;17.70;99.90
58413;DHT22;44209;52.952;6.790;2023-09-19T10:15:42;17.70;99.90
58413;DHT22;44209;52.952;6.790;2023-09-19T10:18:14;17.70;99.90
58413;DHT22;44209;52.952;6.790;2023-09-19T10:20:45;17.70;99.90
58413;DHT22;44209;52.952;6.790;2023-09-19T10:23:12;17.80;99.90
58413;DHT22;44209;52.952;6.790;2023-09-19T10:25:41;17.90;99.90
58413;DHT22;44209;52.952;6.790;2023-09-19T10:28:08;17.90;99.90
58413;DHT22;44209;52.952;6.790;2023-09-19T10:30:38;17.90;99.90
58413;DHT22;44209;52.952;6.790;2023-09-19T10:33:13;17.90;99.90
58413;DHT22;44209;52.952;6.790;2023-09-19T10:35:47;17.90;99.90
58413;DHT22;44209;52.952;6.790;2023-09-19T10:38:14;17.80;99.90
58413;DHT22;44209;52.952;6.790;2023-09-19T10:40:40;17.80;99.90
58413;DHT22;44209;52.952;6.790;2023-09-19T10:43:12;17.90;99.90
58413;DHT22;44209;52.952;6.790;2023-09-19T10:45:39;18.00;99.90
58413;DHT22;44209;52.952;6.790;2023-09-19T10:48:06;18.00;99.90
58413;DHT22;44209;52.952;6.790;2023-09-19T10:50:53;18.00;99.90
58413;DHT22;44209;52.952;6.790;2023-09-19T10:53:26;18.00;99.90
58413;DHT22;44209;52.952;6.790;2023-09-19T10:55:56;17.90;99.90
58413;DHT22;44209;52.952;6.790;2023-09-19T10:58:29;17.90;99.90
58413;DHT22;44209;52.952;6.790;2023-09-19T11:01:00;17.90;99.90
58413;DHT22;44209;52.952;6.790;2023-09-19T11:03:32;18.10;99.90
58413;DHT22;44209;52.952;6.790;2023-09-19T11:06:17;18.10;99.90
58413;DHT22;44209;52.952;6.790;2023-09-19T11:09:01;18.10;99.90
58413;DHT22;44209;52.952;6.790;2023-09-19T11:11:51;18.10;99.90
58413;DHT22;44209;52.952;6.790;2023-09-19T11:30:42;18.10;99.90
58413;DHT22;44209;52.952;6.790;2023-09-19T11:33:18;18.20;99.90
58413;DHT22;44209;52.952;6.790;2023-09-19T11:36:18;18.40;99.90
58413;DHT22;44209;52.952;6.790;2023-09-19T11:38:57;18.40;99.90
58413;DHT22;44209;52.952;6.790;2023-09-19T11:46:27;18.70;99.90
58413;DHT22;44209;52.952;6.790;2023-09-19T11:48:54;18.60;99.90
58413;DHT22;44209;52.952;6.790;2023-09-19T11:51:24;18.60;99.90
58413;DHT22;44209;52.952;6.790;2023-09-19T11:53:59;18.50;99.90
58413;DHT22;44209;52.952;6.790;2023-09-19T11:56:26;18.50;99.90
58413;DHT22;44209;52.952;6.790;2023-09-19T11:58:57;18.40;99.90
58413;DHT22;44209;52.952;6.790;2023-09-19T12:01:32;18.30;99.90
58413;DHT22;44209;52.952;6.790;2023-09-19T12:04:01;18.40;99.90
58413;DHT22;44209;52.952;6.790;2023-09-19T12:06:28;18.40;99.90
58413;DHT22;44209;52.952;6.790;2023-09-19T12:09:02;18.30;99.90
58413;DHT22;44209;52.952;6.790;2023-09-19T12:11:32;18.30;99.90
58413;DHT22;44209;52.952;6.790;2023-09-19T12:13:59;18.30;99.90
58413;DHT22;44209;52.952;6.790;2023-09-19T12:16:26;18.20;99.90
58413;DHT22;44209;52.952;6.790;2023-09-19T12:18:57;18.30;99.90
58413;DHT22;44209;52.952;6.790;2023-09-19T12:21:27;18.30;99.90
58413;DHT22;44209;52.952;6.790;2023-09-19T12:24:05;18.40;99.90
58413;DHT22;44209;52.952;6.790;2023-09-19T12:26:42;18.30;99.90
58413;DHT22;44209;52.952;6.790;2023-09-19T12:29:16;18.30;99.90
58413;DHT22;44209;52.952;6.790;2023-09-19T12:31:54;18.20;99.90
58413;DHT22;44209;52.952;6.790;2023-09-19T12:34:26;18.10;99.90
58413;DHT22;44209;52.952;6.790;2023-09-19T12:37:12;18.10;99.90
58413;DHT22;44209;52.952;6.790;2023-09-19T12:39:44;18.00;99.90
58413;DHT22;44209;52.952;6.790;2023-09-19T12:42:15;17.90;99.90
58413;DHT22;44209;52.952;6.790;2023-09-19T12:44:49;17.80;99.90
58413;DHT22;44209;52.952;6.790;2023-09-19T12:47:18;17.80;99.90
58413;DHT22;44209;52.952;6.790;2023-09-19T12:50:15;17.90;99.90
58413;DHT22;44209;52.952;6.790;2023-09-19T12:52:48;17.90;99.90
58413;DHT22;44209;52.952;6.790;2023-09-19T12:55:25;17.90;99.90
58413;DHT22;44209;52.952;6.790;2023-09-19T12:58:15;18.00;99.90
58413;DHT22;44209;52.952;6.790;2023-09-19T13:00:43;18.10;99.90
58413;DHT22;44209;52.952;6.790;2023-09-19T13:03:25;18.10;99.90
58413;DHT22;44209;52.952;6.790;2023-09-19T13:05:55;18.00;99.90
58413;DHT22;44209;52.952;6.790;2023-09-19T13:08:27;18.00;99.90
58413;DHT22;44209;52.952;6.790;2023-09-19T13:11:15;18.00;99.90
58413;DHT22;44209;52.952;6.790;2023-09-19T13:13:50;17.90;99.90
58413;DHT22;44209;52.952;6.790;2023-09-19T13:16:21;17.90;99.90
58413;DHT22;44209;52.952;6.790;2023-09-19T13:18:52;17.90;99.90
58413;DHT22;44209;52.952;6.790;2023-09-19T13:21:34;17.90;99.90
58413;DHT22;44209;52.952;6.790;2023-09-19T13:24:24;17.90;99.90
58413;DHT22;44209;52.952;6.790;2023-09-19T13:26:56;17.90;99.90
58413;DHT22;44209;52.952;6.790;2023-09-19T13:29:22;17.80;99.90
58413;DHT22;44209;52.952;6.790;2023-09-19T13:31:53;17.80;99.90
58413;DHT22;44209;52.952;6.790;2023-09-19T13:34:21;17.80;99.90
58413;DHT22;44209;52.952;6.790;2023-09-19T13:36:47;17.70;99.90
58413;DHT22;44209;52.952;6.790;2023-09-19T13:39:14;17.80;99.90
58413;DHT22;44209;52.952;6.790;2023-09-19T13:41:47;17.70;99.90
58413;DHT22;44209;52.952;6.790;2023-09-19T13:44:13;17.70;99.90
58413;DHT22;44209;52.952;6.790;2023-09-19T13:46:39;17.70;99.90
58413;DHT22;44209;52.952;6.790;2023-09-19T13:49:06;17.70;99.90
58413;DHT22;44209;52.952;6.790;2023-09-19T13:51:32;17.70;99.90
58413;DHT22;44209;52.952;6.790;2023-09-19T13:53:58;17.70;99.90
58413;DHT22;44209;52.952;6.790;2023-09-19T13:56:25;17.70;99.90
58413;DHT22;44209;52.952;6.790;2023-09-19T13:58:56;17.70;99.90
58413;DHT22;44209;52.952;6.790;2023-09-19T14:01:22;17.70;99.90
58413;DHT22;44209;52.952;6.790;2023-09-19T14:03:48;17.80;99.90
58413;DHT22;44209;52.952;6.790;2023-09-19T14:06:18;17.80;99.90
58413;DHT22;44209;52.952;6.790;2023-09-19T14:08:44;17.80;99.90
58413;DHT22;44209;52.952;6.790;2023-09-19T14:11:13;17.80;99.90
58413;DHT22;44209;52.952;6.790;2023-09-19T14:13:42;17.80;99.90
58413;DHT22;44209;52.952;6.790;2023-09-19T14:16:12;17.80;99.90
58413;DHT22;44209;52.952;6.790;2023-09-19T14:18:38;17.90;99.90
58413;DHT22;44209;52.952;6.790;2023-09-19T14:21:04;17.90;99.90
58413;DHT22;44209;52.952;6.790;2023-09-19T14:23:37;18.00;99.90
58413;DHT22;44209;52.952;6.790;2023-09-19T14:26:04;18.10;99.90
58413;DHT22;44209;52.952;6.790;2023-09-19T14:28:31;18.10;99.90
58413;DHT22;44209;52.952;6.790;2023-09-19T14:31:08;18.20;99.90
58413;DHT22;44209;52.952;6.790;2023-09-19T14:33:34;18.20;99.90
58413;DHT22;44209;52.952;6.790;2023-09-19T14:36:07;18.20;99.90
58413;DHT22;44209;52.952;6.790;2023-09-19T14:38:35;18.20;99.90
58413;DHT22;44209;52.952;6.790;2023-09-19T14:41:06;18.30;99.90
58413;DHT22;44209;52.952;6.790;2023-09-19T14:43:32;18.30;99.90
58413;DHT22;44209;52.952;6.790;2023-09-19T14:46:03;18.20;99.90
58413;DHT22;44209;52.952;6.790;2023-09-19T14:48:29;18.30;99.90
58413;DHT22;44209;52.952;6.790;2023-09-19T14:50:55;18.20;99.90
58413;DHT22;44209;52.952;6.790;2023-09-19T14:53:21;18.20;99.90
58413;DHT22;44209;52.952;6.790;2023-09-19T14:55:47;18.20;99.90
58413;DHT22;44209;52.952;6.790;2023-09-19T14:58:14;18.20;99.90
58413;DHT22;44209;52.952;6.790;2023-09-19T15:00:39;18.10;99.90
58413;DHT22;44209;52.952;6.790;2023-09-19T15:03:05;18.10;99.90
58413;DHT22;44209;52.952;6.790;2023-09-19T15:05:31;18.10;99.90
58413;DHT22;44209;52.952;6.790;2023-09-19T15:07:57;18.10;99.90
58413;DHT22;44209;52.952;6.790;2023-09-19T15:10:23;18.10;99.90
58413;DHT22;44209;52.952;6.790;2023-09-19T15:12:51;18.10;99.90
58413;DHT22;44209;52.952;6.790;2023-09-19T15:15:16;18.10;99.90
58413;DHT22;44209;52.952;6.790;2023-09-19T15:17:42;18.10;99.90
58413;DHT22;44209;52.952;6.790;2023-09-19T15:20:08;18.20;99.90
58413;DHT22;44209;52.952;6.790;2023-09-19T15:22:34;18.20;99.90
58413;DHT22;44209;52.952;6.790;2023-09-19T15:25:03;18.10;99.90
58413;DHT22;44209;52.952;6.790;2023-09-19T15:27:29;18.10;99.90
58413;DHT22;44209;52.952;6.790;2023-09-19T15:29:57;18.10;99.90
58413;DHT22;44209;52.952;6.790;2023-09-19T15:32:24;18.00;99.90
58413;DHT22;44209;52.952;6.790;2023-09-19T15:34:50;18.00;99.90
58413;DHT22;44209;52.952;6.790;2023-09-19T15:37:16;17.90;99.90
58413;DHT22;44209;52.952;6.790;2023-09-19T15:39:42;17.90;99.90
58413;DHT22;44209;52.952;6.790;2023-09-19T15:42:10;17.90;99.90
58413;DHT22;44209;52.952;6.790;2023-09-19T15:44:36;18.00;99.90
58413;DHT22;44209;52.952;6.790;2023-09-19T15:47:03;17.90;99.90
58413;DHT22;44209;52.952;6.790;2023-09-19T15:49:29;17.90;99.90
58413;DHT22;44209;52.952;6.790;2023-09-19T15:51:55;18.00;99.90
58413;DHT22;44209;52.952;6.790;2023-09-19T15:54:21;18.00;99.90
58413;DHT22;44209;52.952;6.790;2023-09-19T15:56:47;18.00;99.90
58413;DHT22;44209;52.952;6.790;2023-09-19T15:59:14;18.00;99.90
58413;DHT22;44209;52.952;6.790;2023-09-19T16:01:44;17.90;99.90
58413;DHT22;44209;52.952;6.790;2023-09-19T16:04:10;17.90;99.90
58413;DHT22;44209;52.952;6.790;2023-09-19T16:06:37;17.80;99.90
58413;DHT22;44209;52.952;6.790;2023-09-19T16:09:04;17.80;99.90
58413;DHT22;44209;52.952;6.790;2023-09-19T16:11:33;17.80;99.90
58413;DHT22;44209;52.952;6.790;2023-09-19T16:13:59;17.80;99.90
58413;DHT22;44209;52.952;6.790;2023-09-19T16:16:27;17.80;99.90
58413;DHT22;44209;52.952;6.790;2023-09-19T16:19:00;17.80;99.90
58413;DHT22;44209;52.952;6.790;2023-09-19T16:21:28;17.80;99.90
58413;DHT22;44209;52.952;6.790;2023-09-19T16:23:56;17.90;99.90
58413;DHT22;44209;52.952;6.790;2023-09-19T16:26:24;17.90;99.90
58413;DHT22;44209;52.952;6.790;2023-09-19T16:28:51;17.90;99.90
58413;DHT22;44209;52.952;6.790;2023-09-19T16:31:17;17.90;99.90
58413;DHT22;44209;52.952;6.790;2023-09-19T16:33:45;17.90;99.90